sensor_id;sensor_type;location;lat;lon;timestamp;P1;durP1;ratioP1;P2;durP2;ratioP2
50249;SDS011;36133;42.522;27.456;2023-04-15T00:01:24;34.70;;;8.95;;
50249;SDS011;36133;42.522;27.456;2023-04-15T00:03:51;24.80;;;8.23;;
50249;SDS011;36133;42.522;27.456;2023-04-15T00:06:22;26.75;;;7.28;;
50249;SDS011;36133;42.522;27.456;2023-04-15T00:08:48;22.65;;;7.15;;
50249;SDS011;36133;42.522;27.456;2023-04-15T00:11:15;21.67;;;7.30;;
50249;SDS011;36133;42.522;27.456;2023-04-15T00:13:41;18.20;;;6.70;;
50249;SDS011;36133;42.522;27.456;2023-04-15T00:16:08;28.70;;;6.90;;
50249;SDS011;36133;42.522;27.456;2023-04-15T00:18:34;26.48;;;7.25;;
50249;SDS011;36133;42.522;27.456;2023-04-15T00:21:03;29.38;;;7.53;;
50249;SDS011;36133;42.522;27.456;2023-04-15T00:23:31;24.42;;;7.18;;
50249;SDS011;36133;42.522;27.456;2023-04-15T00:25:56;24.80;;;7.57;;
50249;SDS011;36133;42.522;27.456;2023-04-15T00:28:22;26.40;;;7.45;;
50249;SDS011;36133;42.522;27.456;2023-04-15T00:30:47;21.85;;;7.10;;
50249;SDS011;36133;42.522;27.456;2023-04-15T00:33:13;32.05;;;7.80;;
50249;SDS011;36133;42.522;27.456;2023-04-15T00:35:40;20.58;;;7.82;;
50249;SDS011;36133;42.522;27.456;2023-04-15T00:38:06;22.10;;;7.07;;
50249;SDS011;36133;42.522;27.456;2023-04-15T00:40:32;23.92;;;6.93;;
50249;SDS011;36133;42.522;27.456;2023-04-15T00:42:58;26.60;;;8.15;;
50249;SDS011;36133;42.522;27.456;2023-04-15T00:45:24;23.08;;;7.55;;
50249;SDS011;36133;42.522;27.456;2023-04-15T00:47:50;22.98;;;7.55;;
50249;SDS011;36133;42.522;27.456;2023-04-15T00:50:16;23.30;;;7.55;;
50249;SDS011;36133;42.522;27.456;2023-04-15T00:52:41;25.17;;;8.23;;
50249;SDS011;36133;42.522;27.456;2023-04-15T00:55:07;25.42;;;7.85;;
50249;SDS011;36133;42.522;27.456;2023-04-15T00:57:34;22.40;;;7.60;;
50249;SDS011;36133;42.522;27.456;2023-04-15T01:00:00;25.90;;;7.25;;
50249;SDS011;36133;42.522;27.456;2023-04-15T01:02:26;22.73;;;7.78;;
50249;SDS011;36133;42.522;27.456;2023-04-15T01:04:55;23.58;;;7.30;;
50249;SDS011;36133;42.522;27.456;2023-04-15T01:07:21;31.30;;;8.20;;
50249;SDS011;36133;42.522;27.456;2023-04-15T01:09:46;24.92;;;7.75;;
50249;SDS011;36133;42.522;27.456;2023-04-15T01:12:13;21.23;;;8.02;;
50249;SDS011;36133;42.522;27.456;2023-04-15T01:14:41;23.20;;;6.53;;
50249;SDS011;36133;42.522;27.456;2023-04-15T01:17:06;17.65;;;7.45;;
50249;SDS011;36133;42.522;27.456;2023-04-15T01:19:32;26.50;;;7.43;;
50249;SDS011;36133;42.522;27.456;2023-04-15T01:22:01;24.05;;;7.65;;
50249;SDS011;36133;42.522;27.456;2023-04-15T01:24:27;25.58;;;7.75;;
50249;SDS011;36133;42.522;27.456;2023-04-15T01:26:55;19.55;;;6.18;;
50249;SDS011;36133;42.522;27.456;2023-04-15T01:29:21;20.55;;;7.38;;
50249;SDS011;36133;42.522;27.456;2023-04-15T01:31:51;23.40;;;6.95;;
50249;SDS011;36133;42.522;27.456;2023-04-15T01:34:21;18.45;;;7.22;;
50249;SDS011;36133;42.522;27.456;2023-04-15T01:36:47;27.95;;;7.72;;
50249;SDS011;36133;42.522;27.456;2023-04-15T01:39:13;28.27;;;7.22;;
50249;SDS011;36133;42.522;27.456;2023-04-15T01:41:39;19.38;;;6.93;;
50249;SDS011;36133;42.522;27.456;2023-04-15T01:44:06;21.85;;;7.50;;
50249;SDS011;36133;42.522;27.456;2023-04-15T01:46:32;17.20;;;6.22;;
50249;SDS011;36133;42.522;27.456;2023-04-15T01:48:58;21.70;;;6.90;;
50249;SDS011;36133;42.522;27.456;2023-04-15T01:51:24;26.38;;;7.80;;
50249;SDS011;36133;42.522;27.456;2023-04-15T01:53:51;25.38;;;7.50;;
50249;SDS011;36133;42.522;27.456;2023-04-15T01:56:16;25.52;;;8.35;;
50249;SDS011;36133;42.522;27.456;2023-04-15T01:58:42;25.83;;;7.80;;
50249;SDS011;36133;42.522;27.456;2023-04-15T02:01:08;21.67;;;7.50;;
50249;SDS011;36133;42.522;27.456;2023-04-15T02:03:35;27.42;;;7.40;;
50249;SDS011;36133;42.522;27.456;2023-04-15T02:06:03;21.77;;;7.75;;
50249;SDS011;36133;42.522;27.456;2023-04-15T02:08:30;32.60;;;9.95;;
50249;SDS011;36133;42.522;27.456;2023-04-15T02:10:55;30.98;;;10.50;;
50249;SDS011;36133;42.522;27.456;2023-04-15T02:13:21;28.67;;;8.50;;
50249;SDS011;36133;42.522;27.456;2023-04-15T02:15:50;24.60;;;8.88;;
50249;SDS011;36133;42.522;27.456;2023-04-15T02:18:16;21.48;;;8.20;;
50249;SDS011;36133;42.522;27.456;2023-04-15T02:20:42;26.80;;;7.63;;
50249;SDS011;36133;42.522;27.456;2023-04-15T02:23:11;20.35;;;7.57;;
50249;SDS011;36133;42.522;27.456;2023-04-15T02:25:37;23.60;;;8.20;;
50249;SDS011;36133;42.522;27.456;2023-04-15T02:28:05;25.88;;;7.63;;
50249;SDS011;36133;42.522;27.456;2023-04-15T02:30:31;23.52;;;7.35;;
50249;SDS011;36133;42.522;27.456;2023-04-15T02:32:57;24.27;;;8.10;;
50249;SDS011;36133;42.522;27.456;2023-04-15T02:35:24;28.80;;;7.75;;
50249;SDS011;36133;42.522;27.456;2023-04-15T02:37:50;24.65;;;7.90;;
50249;SDS011;36133;42.522;27.456;2023-04-15T02:40:16;17.45;;;7.35;;
50249;SDS011;36133;42.522;27.456;2023-04-15T02:42:41;23.13;;;8.02;;
50249;SDS011;36133;42.522;27.456;2023-04-15T02:45:08;23.48;;;7.75;;
50249;SDS011;36133;42.522;27.456;2023-04-15T02:47:36;24.95;;;8.82;;
50249;SDS011;36133;42.522;27.456;2023-04-15T02:50:11;21.90;;;8.55;;
50249;SDS011;36133;42.522;27.456;2023-04-15T02:52:40;31.98;;;9.48;;
50249;SDS011;36133;42.522;27.456;2023-04-15T02:55:07;28.73;;;9.73;;
50249;SDS011;36133;42.522;27.456;2023-04-15T02:57:33;31.63;;;9.35;;
50249;SDS011;36133;42.522;27.456;2023-04-15T03:00:01;32.28;;;8.77;;
50249;SDS011;36133;42.522;27.456;2023-04-15T03:02:35;34.83;;;9.90;;
50249;SDS011;36133;42.522;27.456;2023-04-15T03:05:02;23.45;;;9.82;;
50249;SDS011;36133;42.522;27.456;2023-04-15T03:07:29;31.08;;;10.45;;
50249;SDS011;36133;42.522;27.456;2023-04-15T03:09:55;28.83;;;10.25;;
50249;SDS011;36133;42.522;27.456;2023-04-15T03:12:21;32.10;;;9.50;;
50249;SDS011;36133;42.522;27.456;2023-04-15T03:14:47;35.33;;;11.10;;
50249;SDS011;36133;42.522;27.456;2023-04-15T03:17:13;30.67;;;12.35;;
50249;SDS011;36133;42.522;27.456;2023-04-15T03:19:38;35.55;;;11.27;;
50249;SDS011;36133;42.522;27.456;2023-04-15T03:22:04;31.80;;;11.57;;
50249;SDS011;36133;42.522;27.456;2023-04-15T03:24:30;28.50;;;8.63;;
50249;SDS011;36133;42.522;27.456;2023-04-15T03:26:55;32.35;;;10.48;;
50249;SDS011;36133;42.522;27.456;2023-04-15T03:29:22;37.55;;;10.93;;
50249;SDS011;36133;42.522;27.456;2023-04-15T03:31:48;24.98;;;10.43;;
50249;SDS011;36133;42.522;27.456;2023-04-15T03:34:13;28.13;;;11.43;;
50249;SDS011;36133;42.522;27.456;2023-04-15T03:36:39;34.20;;;11.60;;
50249;SDS011;36133;42.522;27.456;2023-04-15T03:39:04;29.10;;;11.70;;
50249;SDS011;36133;42.522;27.456;2023-04-15T03:41:30;31.52;;;11.45;;
50249;SDS011;36133;42.522;27.456;2023-04-15T03:43:57;32.95;;;14.07;;
50249;SDS011;36133;42.522;27.456;2023-04-15T03:46:22;40.30;;;13.35;;
50249;SDS011;36133;42.522;27.456;2023-04-15T03:48:48;39.70;;;13.30;;
50249;SDS011;36133;42.522;27.456;2023-04-15T03:51:13;38.42;;;12.02;;
50249;SDS011;36133;42.522;27.456;2023-04-15T03:53:39;42.08;;;12.77;;
50249;SDS011;36133;42.522;27.456;2023-04-15T03:56:05;27.42;;;12.40;;
50249;SDS011;36133;42.522;27.456;2023-04-15T03:58:33;38.75;;;13.68;;
50249;SDS011;36133;42.522;27.456;2023-04-15T04:00:59;28.33;;;11.98;;
50249;SDS011;36133;42.522;27.456;2023-04-15T04:03:24;32.88;;;12.13;;
50249;SDS011;36133;42.522;27.456;2023-04-15T04:05:50;33.53;;;13.10;;
50249;SDS011;36133;42.522;27.456;2023-04-15T04:08:15;37.72;;;13.70;;
50249;SDS011;36133;42.522;27.456;2023-04-15T04:10:43;37.00;;;13.75;;
50249;SDS011;36133;42.522;27.456;2023-04-15T04:13:09;40.63;;;13.70;;
50249;SDS011;36133;42.522;27.456;2023-04-15T04:15:34;36.85;;;14.25;;
50249;SDS011;36133;42.522;27.456;2023-04-15T04:18:00;28.08;;;14.00;;
50249;SDS011;36133;42.522;27.456;2023-04-15T04:20:26;32.35;;;14.65;;
50249;SDS011;36133;42.522;27.456;2023-04-15T04:22:51;40.83;;;16.63;;
50249;SDS011;36133;42.522;27.456;2023-04-15T04:25:17;40.03;;;17.33;;
50249;SDS011;36133;42.522;27.456;2023-04-15T04:27:42;37.05;;;16.65;;
50249;SDS011;36133;42.522;27.456;2023-04-15T04:30:12;38.90;;;14.30;;
50249;SDS011;36133;42.522;27.456;2023-04-15T04:32:38;31.92;;;15.25;;
50249;SDS011;36133;42.522;27.456;2023-04-15T04:35:03;33.33;;;12.98;;
50249;SDS011;36133;42.522;27.456;2023-04-15T04:37:29;43.00;;;14.20;;
50249;SDS011;36133;42.522;27.456;2023-04-15T04:39:55;41.20;;;13.75;;
50249;SDS011;36133;42.522;27.456;2023-04-15T04:42:20;43.42;;;13.48;;
50249;SDS011;36133;42.522;27.456;2023-04-15T04:44:46;43.67;;;12.98;;
50249;SDS011;36133;42.522;27.456;2023-04-15T04:47:12;38.33;;;12.55;;
50249;SDS011;36133;42.522;27.456;2023-04-15T04:49:38;28.58;;;8.25;;
50249;SDS011;36133;42.522;27.456;2023-04-15T04:52:03;21.80;;;7.65;;
50249;SDS011;36133;42.522;27.456;2023-04-15T04:54:29;27.35;;;8.95;;
50249;SDS011;36133;42.522;27.456;2023-04-15T04:56:55;26.70;;;8.60;;
50249;SDS011;36133;42.522;27.456;2023-04-15T04:59:22;19.52;;;8.32;;
50249;SDS011;36133;42.522;27.456;2023-04-15T05:01:51;26.92;;;8.95;;
50249;SDS011;36133;42.522;27.456;2023-04-15T05:04:17;32.72;;;11.07;;
50249;SDS011;36133;42.522;27.456;2023-04-15T05:06:42;21.13;;;8.98;;
50249;SDS011;36133;42.522;27.456;2023-04-15T05:09:08;31.52;;;9.95;;
50249;SDS011;36133;42.522;27.456;2023-04-15T05:11:34;28.45;;;9.70;;
50249;SDS011;36133;42.522;27.456;2023-04-15T05:14:00;28.35;;;11.55;;
50249;SDS011;36133;42.522;27.456;2023-04-15T05:16:26;22.02;;;10.88;;
50249;SDS011;36133;42.522;27.456;2023-04-15T05:18:52;29.15;;;10.32;;
50249;SDS011;36133;42.522;27.456;2023-04-15T05:21:18;26.38;;;9.80;;
50249;SDS011;36133;42.522;27.456;2023-04-15T05:23:44;25.67;;;9.48;;
50249;SDS011;36133;42.522;27.456;2023-04-15T05:26:10;32.65;;;11.00;;
50249;SDS011;36133;42.522;27.456;2023-04-15T05:28:36;26.77;;;9.50;;
50249;SDS011;36133;42.522;27.456;2023-04-15T05:31:01;23.17;;;8.38;;
50249;SDS011;36133;42.522;27.456;2023-04-15T05:33:27;24.45;;;8.90;;
50249;SDS011;36133;42.522;27.456;2023-04-15T05:35:53;23.42;;;8.18;;
50249;SDS011;36133;42.522;27.456;2023-04-15T05:38:19;28.75;;;8.52;;
50249;SDS011;36133;42.522;27.456;2023-04-15T05:40:45;17.02;;;7.22;;
50249;SDS011;36133;42.522;27.456;2023-04-15T05:43:11;17.48;;;7.95;;
50249;SDS011;36133;42.522;27.456;2023-04-15T05:45:36;14.98;;;6.45;;
50249;SDS011;36133;42.522;27.456;2023-04-15T05:48:02;13.77;;;6.05;;
50249;SDS011;36133;42.522;27.456;2023-04-15T05:50:28;16.27;;;5.88;;
50249;SDS011;36133;42.522;27.456;2023-04-15T05:52:53;12.25;;;4.93;;
50249;SDS011;36133;42.522;27.456;2023-04-15T05:55:20;15.38;;;5.50;;
50249;SDS011;36133;42.522;27.456;2023-04-15T05:57:46;16.83;;;6.00;;
50249;SDS011;36133;42.522;27.456;2023-04-15T06:00:12;16.90;;;6.50;;
50249;SDS011;36133;42.522;27.456;2023-04-15T06:02:38;13.32;;;5.75;;
50249;SDS011;36133;42.522;27.456;2023-04-15T06:05:04;11.68;;;6.32;;
50249;SDS011;36133;42.522;27.456;2023-04-15T06:07:34;13.02;;;6.25;;
50249;SDS011;36133;42.522;27.456;2023-04-15T06:10:01;16.17;;;6.82;;
50249;SDS011;36133;42.522;27.456;2023-04-15T06:12:27;13.43;;;6.43;;
50249;SDS011;36133;42.522;27.456;2023-04-15T06:14:53;14.57;;;6.20;;
50249;SDS011;36133;42.522;27.456;2023-04-15T06:17:24;14.13;;;5.93;;
50249;SDS011;36133;42.522;27.456;2023-04-15T06:19:50;11.20;;;5.78;;
50249;SDS011;36133;42.522;27.456;2023-04-15T06:22:20;12.35;;;4.90;;
50249;SDS011;36133;42.522;27.456;2023-04-15T06:24:48;8.75;;;4.82;;
50249;SDS011;36133;42.522;27.456;2023-04-15T06:27:17;11.68;;;4.95;;
50249;SDS011;36133;42.522;27.456;2023-04-15T06:29:45;11.30;;;5.38;;
50249;SDS011;36133;42.522;27.456;2023-04-15T06:32:11;14.30;;;5.78;;
50249;SDS011;36133;42.522;27.456;2023-04-15T06:34:37;9.75;;;5.00;;
50249;SDS011;36133;42.522;27.456;2023-04-15T06:37:06;10.35;;;4.95;;
50249;SDS011;36133;42.522;27.456;2023-04-15T06:39:39;12.52;;;4.95;;
50249;SDS011;36133;42.522;27.456;2023-04-15T06:42:05;8.20;;;3.97;;
50249;SDS011;36133;42.522;27.456;2023-04-15T06:44:30;9.95;;;4.53;;
50249;SDS011;36133;42.522;27.456;2023-04-15T06:46:56;13.85;;;4.45;;
50249;SDS011;36133;42.522;27.456;2023-04-15T06:49:22;10.25;;;4.47;;
50249;SDS011;36133;42.522;27.456;2023-04-15T06:51:52;10.38;;;4.45;;
50249;SDS011;36133;42.522;27.456;2023-04-15T06:54:18;13.82;;;4.35;;
50249;SDS011;36133;42.522;27.456;2023-04-15T06:56:44;19.52;;;7.82;;
50249;SDS011;36133;42.522;27.456;2023-04-15T06:59:10;10.82;;;7.28;;
50249;SDS011;36133;42.522;27.456;2023-04-15T07:01:35;19.02;;;9.50;;
50249;SDS011;36133;42.522;27.456;2023-04-15T07:04:01;21.55;;;10.60;;
50249;SDS011;36133;42.522;27.456;2023-04-15T07:06:30;25.50;;;13.20;;
50249;SDS011;36133;42.522;27.456;2023-04-15T07:08:59;30.30;;;15.50;;
50249;SDS011;36133;42.522;27.456;2023-04-15T07:11:28;20.88;;;11.30;;
50249;SDS011;36133;42.522;27.456;2023-04-15T07:13:54;13.07;;;6.13;;
50249;SDS011;36133;42.522;27.456;2023-04-15T07:16:19;13.60;;;6.22;;
50249;SDS011;36133;42.522;27.456;2023-04-15T07:18:45;11.25;;;6.07;;
50249;SDS011;36133;42.522;27.456;2023-04-15T07:21:13;14.57;;;5.35;;
50249;SDS011;36133;42.522;27.456;2023-04-15T07:23:39;20.52;;;5.85;;
50249;SDS011;36133;42.522;27.456;2023-04-15T07:26:05;12.27;;;5.10;;
50249;SDS011;36133;42.522;27.456;2023-04-15T07:31:22;7.47;;;4.28;;
50249;SDS011;36133;42.522;27.456;2023-04-15T07:33:50;10.48;;;4.22;;
50249;SDS011;36133;42.522;27.456;2023-04-15T07:36:16;13.48;;;4.75;;
50249;SDS011;36133;42.522;27.456;2023-04-15T07:38:45;9.50;;;4.35;;
50249;SDS011;36133;42.522;27.456;2023-04-15T07:41:22;10.48;;;4.30;;
50249;SDS011;36133;42.522;27.456;2023-04-15T07:43:48;10.00;;;4.43;;
50249;SDS011;36133;42.522;27.456;2023-04-15T07:46:14;11.25;;;4.82;;
50249;SDS011;36133;42.522;27.456;2023-04-15T07:48:40;10.25;;;5.13;;
50249;SDS011;36133;42.522;27.456;2023-04-15T07:51:09;13.05;;;6.30;;
50249;SDS011;36133;42.522;27.456;2023-04-15T07:53:51;10.27;;;5.85;;
50249;SDS011;36133;42.522;27.456;2023-04-15T07:56:20;14.90;;;5.10;;
50249;SDS011;36133;42.522;27.456;2023-04-15T07:58:46;13.10;;;4.80;;
50249;SDS011;36133;42.522;27.456;2023-04-15T08:01:11;6.90;;;4.13;;
50249;SDS011;36133;42.522;27.456;2023-04-15T08:03:37;10.98;;;5.13;;
50249;SDS011;36133;42.522;27.456;2023-04-15T08:06:03;8.38;;;3.83;;
50249;SDS011;36133;42.522;27.456;2023-04-15T08:08:29;9.70;;;4.10;;
50249;SDS011;36133;42.522;27.456;2023-04-15T08:10:55;11.38;;;4.20;;
50249;SDS011;36133;42.522;27.456;2023-04-15T08:13:24;8.45;;;4.10;;
50249;SDS011;36133;42.522;27.456;2023-04-15T08:15:56;6.18;;;3.75;;
50249;SDS011;36133;42.522;27.456;2023-04-15T08:18:53;11.13;;;3.38;;
50249;SDS011;36133;42.522;27.456;2023-04-15T08:21:20;0.00;;;0.00;;
50249;SDS011;36133;42.522;27.456;2023-04-15T08:23:46;0.25;;;0.25;;
50249;SDS011;36133;42.522;27.456;2023-04-15T08:26:18;0.00;;;0.00;;
50249;SDS011;36133;42.522;27.456;2023-04-15T08:28:45;0.10;;;0.10;;
50249;SDS011;36133;42.522;27.456;2023-04-15T08:31:11;0.00;;;0.00;;
50249;SDS011;36133;42.522;27.456;2023-04-15T08:33:59;0.30;;;0.30;;
50249;SDS011;36133;42.522;27.456;2023-04-15T08:36:44;4.85;;;2.17;;
50249;SDS011;36133;42.522;27.456;2023-04-15T08:39:10;0.03;;;0.03;;
50249;SDS011;36133;42.522;27.456;2023-04-15T08:44:35;0.15;;;0.15;;
50249;SDS011;36133;42.522;27.456;2023-04-15T08:47:02;0.00;;;0.00;;
50249;SDS011;36133;42.522;27.456;2023-04-15T08:49:32;0.10;;;0.10;;
50249;SDS011;36133;42.522;27.456;2023-04-15T08:52:06;0.90;;;0.90;;
50249;SDS011;36133;42.522;27.456;2023-04-15T08:54:33;0.03;;;0.03;;
50249;SDS011;36133;42.522;27.456;2023-04-15T08:57:00;0.00;;;0.00;;
50249;SDS011;36133;42.522;27.456;2023-04-15T08:59:40;0.00;;;0.00;;
50249;SDS011;36133;42.522;27.456;2023-04-15T09:02:15;0.10;;;0.10;;
50249;SDS011;36133;42.522;27.456;2023-04-15T09:04:41;0.10;;;0.10;;
50249;SDS011;36133;42.522;27.456;2023-04-15T09:07:06;0.10;;;0.10;;
50249;SDS011;36133;42.522;27.456;2023-04-15T09:09:35;1.20;;;1.17;;
50249;SDS011;36133;42.522;27.456;2023-04-15T09:12:04;1.45;;;0.75;;
50249;SDS011;36133;42.522;27.456;2023-04-15T09:14:30;10.32;;;5.13;;
50249;SDS011;36133;42.522;27.456;2023-04-15T09:17:02;11.55;;;5.53;;
50249;SDS011;36133;42.522;27.456;2023-04-15T09:19:28;15.63;;;4.57;;
50249;SDS011;36133;42.522;27.456;2023-04-15T09:21:58;11.20;;;4.65;;
50249;SDS011;36133;42.522;27.456;2023-04-15T09:24:37;13.02;;;5.95;;
50249;SDS011;36133;42.522;27.456;2023-04-15T09:27:05;7.75;;;4.25;;
50249;SDS011;36133;42.522;27.456;2023-04-15T09:29:44;7.97;;;3.80;;
50249;SDS011;36133;42.522;27.456;2023-04-15T09:32:14;7.53;;;3.97;;
50249;SDS011;36133;42.522;27.456;2023-04-15T09:34:52;10.63;;;4.70;;
50249;SDS011;36133;42.522;27.456;2023-04-15T09:37:41;9.38;;;3.50;;
50249;SDS011;36133;42.522;27.456;2023-04-15T09:40:13;7.53;;;3.38;;
50249;SDS011;36133;42.522;27.456;2023-04-15T09:43:00;6.18;;;3.45;;
50249;SDS011;36133;42.522;27.456;2023-04-15T09:45:27;8.70;;;4.90;;
50249;SDS011;36133;42.522;27.456;2023-04-15T09:47:53;7.28;;;4.68;;
50249;SDS011;36133;42.522;27.456;2023-04-15T09:50:19;8.80;;;4.65;;
50249;SDS011;36133;42.522;27.456;2023-04-15T09:52:51;7.10;;;3.53;;
50249;SDS011;36133;42.522;27.456;2023-04-15T09:55:16;7.38;;;4.28;;
50249;SDS011;36133;42.522;27.456;2023-04-15T09:57:42;8.52;;;4.40;;
50249;SDS011;36133;42.522;27.456;2023-04-15T10:00:11;5.75;;;3.50;;
50249;SDS011;36133;42.522;27.456;2023-04-15T10:02:41;5.90;;;2.80;;
50249;SDS011;36133;42.522;27.456;2023-04-15T10:05:14;4.95;;;2.30;;
50249;SDS011;36133;42.522;27.456;2023-04-15T10:07:41;2.67;;;2.17;;
50249;SDS011;36133;42.522;27.456;2023-04-15T10:10:11;7.00;;;2.72;;
50249;SDS011;36133;42.522;27.456;2023-04-15T10:12:41;5.55;;;2.55;;
50249;SDS011;36133;42.522;27.456;2023-04-15T10:15:13;7.88;;;3.28;;
50249;SDS011;36133;42.522;27.456;2023-04-15T10:17:43;3.15;;;2.15;;
50249;SDS011;36133;42.522;27.456;2023-04-15T10:20:10;3.63;;;1.80;;
50249;SDS011;36133;42.522;27.456;2023-04-15T10:22:39;4.07;;;2.03;;
50249;SDS011;36133;42.522;27.456;2023-04-15T10:25:18;5.95;;;2.00;;
50249;SDS011;36133;42.522;27.456;2023-04-15T10:27:47;3.58;;;1.63;;
50249;SDS011;36133;42.522;27.456;2023-04-15T10:30:16;3.53;;;1.77;;
50249;SDS011;36133;42.522;27.456;2023-04-15T10:32:44;3.63;;;1.88;;
50249;SDS011;36133;42.522;27.456;2023-04-15T10:35:13;4.72;;;2.10;;
50249;SDS011;36133;42.522;27.456;2023-04-15T10:37:43;4.00;;;2.03;;
50249;SDS011;36133;42.522;27.456;2023-04-15T10:43:06;5.15;;;2.05;;
50249;SDS011;36133;42.522;27.456;2023-04-15T10:45:49;5.97;;;1.88;;
50249;SDS011;36133;42.522;27.456;2023-04-15T10:48:14;6.32;;;1.90;;
50249;SDS011;36133;42.522;27.456;2023-04-15T10:50:56;7.00;;;2.03;;
50249;SDS011;36133;42.522;27.456;2023-04-15T10:53:28;6.68;;;2.50;;
50249;SDS011;36133;42.522;27.456;2023-04-15T10:55:55;6.43;;;2.45;;
50249;SDS011;36133;42.522;27.456;2023-04-15T10:58:24;6.72;;;2.35;;
50249;SDS011;36133;42.522;27.456;2023-04-15T11:00:52;5.15;;;2.30;;
50249;SDS011;36133;42.522;27.456;2023-04-15T11:03:36;6.65;;;2.85;;
50249;SDS011;36133;42.522;27.456;2023-04-15T11:06:04;6.75;;;2.78;;
50249;SDS011;36133;42.522;27.456;2023-04-15T11:11:18;7.00;;;2.95;;
50249;SDS011;36133;42.522;27.456;2023-04-15T11:13:48;7.25;;;2.50;;
50249;SDS011;36133;42.522;27.456;2023-04-15T11:16:15;5.15;;;2.53;;
50249;SDS011;36133;42.522;27.456;2023-04-15T11:18:53;8.70;;;2.35;;
50249;SDS011;36133;42.522;27.456;2023-04-15T11:21:20;4.47;;;2.03;;
50249;SDS011;36133;42.522;27.456;2023-04-15T11:23:53;9.75;;;3.75;;
50249;SDS011;36133;42.522;27.456;2023-04-15T11:26:18;5.97;;;2.38;;
50249;SDS011;36133;42.522;27.456;2023-04-15T11:28:51;4.55;;;2.40;;
50249;SDS011;36133;42.522;27.456;2023-04-15T11:31:16;6.47;;;3.10;;
50249;SDS011;36133;42.522;27.456;2023-04-15T11:33:44;5.35;;;2.33;;
50249;SDS011;36133;42.522;27.456;2023-04-15T11:36:27;6.88;;;1.75;;
50249;SDS011;36133;42.522;27.456;2023-04-15T11:38:59;5.18;;;2.05;;
50249;SDS011;36133;42.522;27.456;2023-04-15T11:41:24;6.85;;;2.17;;
50249;SDS011;36133;42.522;27.456;2023-04-15T11:43:50;6.13;;;2.20;;
50249;SDS011;36133;42.522;27.456;2023-04-15T11:46:19;8.25;;;2.42;;
50249;SDS011;36133;42.522;27.456;2023-04-15T11:48:46;5.97;;;2.50;;
50249;SDS011;36133;42.522;27.456;2023-04-15T11:51:12;6.43;;;1.88;;
50249;SDS011;36133;42.522;27.456;2023-04-15T11:53:40;7.38;;;2.25;;
50249;SDS011;36133;42.522;27.456;2023-04-15T11:56:25;6.97;;;2.15;;
50249;SDS011;36133;42.522;27.456;2023-04-15T11:58:55;6.20;;;1.98;;
50249;SDS011;36133;42.522;27.456;2023-04-15T12:01:44;6.05;;;1.85;;
50249;SDS011;36133;42.522;27.456;2023-04-15T12:04:15;6.55;;;2.15;;
50249;SDS011;36133;42.522;27.456;2023-04-15T12:06:44;10.98;;;2.40;;
50249;SDS011;36133;42.522;27.456;2023-04-15T12:09:10;5.88;;;2.08;;
50249;SDS011;36133;42.522;27.456;2023-04-15T12:14:35;5.55;;;1.90;;
50249;SDS011;36133;42.522;27.456;2023-04-15T12:17:02;6.15;;;2.30;;
50249;SDS011;36133;42.522;27.456;2023-04-15T12:19:39;9.18;;;2.20;;
50249;SDS011;36133;42.522;27.456;2023-04-15T12:22:10;6.13;;;2.03;;
50249;SDS011;36133;42.522;27.456;2023-04-15T12:24:37;7.63;;;2.50;;
50249;SDS011;36133;42.522;27.456;2023-04-15T12:27:10;5.28;;;2.00;;
50249;SDS011;36133;42.522;27.456;2023-04-15T12:29:44;5.97;;;2.20;;
50249;SDS011;36133;42.522;27.456;2023-04-15T12:32:19;8.48;;;2.17;;
50249;SDS011;36133;42.522;27.456;2023-04-15T12:34:51;5.03;;;2.38;;
50249;SDS011;36133;42.522;27.456;2023-04-15T12:37:18;6.90;;;3.30;;
50249;SDS011;36133;42.522;27.456;2023-04-15T12:39:45;5.38;;;2.40;;
50249;SDS011;36133;42.522;27.456;2023-04-15T12:42:13;6.80;;;2.17;;
50249;SDS011;36133;42.522;27.456;2023-04-15T12:44:39;6.97;;;2.38;;
50249;SDS011;36133;42.522;27.456;2023-04-15T12:47:08;8.32;;;2.58;;
50249;SDS011;36133;42.522;27.456;2023-04-15T12:49:39;3.95;;;2.20;;
50249;SDS011;36133;42.522;27.456;2023-04-15T12:52:08;9.20;;;2.67;;
50249;SDS011;36133;42.522;27.456;2023-04-15T12:54:34;4.30;;;2.30;;
50249;SDS011;36133;42.522;27.456;2023-04-15T12:57:02;9.98;;;2.60;;
50249;SDS011;36133;42.522;27.456;2023-04-15T12:59:28;5.22;;;2.40;;
50249;SDS011;36133;42.522;27.456;2023-04-15T13:01:54;4.75;;;2.47;;
50249;SDS011;36133;42.522;27.456;2023-04-15T13:04:20;7.93;;;2.20;;
50249;SDS011;36133;42.522;27.456;2023-04-15T13:06:48;7.20;;;2.60;;
50249;SDS011;36133;42.522;27.456;2023-04-15T13:09:16;6.53;;;2.88;;
50249;SDS011;36133;42.522;27.456;2023-04-15T13:11:42;7.65;;;2.60;;
50249;SDS011;36133;42.522;27.456;2023-04-15T13:14:08;4.78;;;2.35;;
50249;SDS011;36133;42.522;27.456;2023-04-15T13:16:37;7.40;;;2.47;;
50249;SDS011;36133;42.522;27.456;2023-04-15T13:19:03;6.15;;;2.50;;
50249;SDS011;36133;42.522;27.456;2023-04-15T13:21:29;6.22;;;2.88;;
50249;SDS011;36133;42.522;27.456;2023-04-15T13:23:59;5.47;;;2.40;;
50249;SDS011;36133;42.522;27.456;2023-04-15T13:26:24;3.85;;;2.17;;
50249;SDS011;36133;42.522;27.456;2023-04-15T13:28:50;5.97;;;2.67;;
50249;SDS011;36133;42.522;27.456;2023-04-15T13:31:16;6.35;;;1.98;;
50249;SDS011;36133;42.522;27.456;2023-04-15T13:33:41;5.97;;;2.45;;
50249;SDS011;36133;42.522;27.456;2023-04-15T13:36:07;6.57;;;2.55;;
50249;SDS011;36133;42.522;27.456;2023-04-15T13:38:33;5.00;;;2.00;;
50249;SDS011;36133;42.522;27.456;2023-04-15T13:40:59;8.80;;;2.22;;
50249;SDS011;36133;42.522;27.456;2023-04-15T13:43:24;7.78;;;2.80;;
50249;SDS011;36133;42.522;27.456;2023-04-15T13:45:57;8.02;;;2.63;;
50249;SDS011;36133;42.522;27.456;2023-04-15T13:48:26;6.53;;;2.83;;
50249;SDS011;36133;42.522;27.456;2023-04-15T13:50:55;7.65;;;3.30;;
50249;SDS011;36133;42.522;27.456;2023-04-15T13:53:23;8.18;;;3.30;;
50249;SDS011;36133;42.522;27.456;2023-04-15T13:55:49;10.60;;;2.90;;
50249;SDS011;36133;42.522;27.456;2023-04-15T13:58:15;7.03;;;3.00;;
50249;SDS011;36133;42.522;27.456;2023-04-15T14:00:40;9.10;;;3.65;;
50249;SDS011;36133;42.522;27.456;2023-04-15T14:03:06;7.70;;;3.05;;
50249;SDS011;36133;42.522;27.456;2023-04-15T14:05:31;5.57;;;3.05;;
50249;SDS011;36133;42.522;27.456;2023-04-15T14:08:00;11.85;;;3.30;;
50249;SDS011;36133;42.522;27.456;2023-04-15T14:10:26;7.82;;;2.88;;
50249;SDS011;36133;42.522;27.456;2023-04-15T14:12:51;7.63;;;3.17;;
50249;SDS011;36133;42.522;27.456;2023-04-15T14:15:17;8.15;;;3.72;;
50249;SDS011;36133;42.522;27.456;2023-04-15T14:17:43;8.00;;;3.05;;
50249;SDS011;36133;42.522;27.456;2023-04-15T14:20:09;6.45;;;3.00;;
50249;SDS011;36133;42.522;27.456;2023-04-15T14:22:37;8.90;;;3.40;;
50249;SDS011;36133;42.522;27.456;2023-04-15T14:25:03;7.25;;;3.70;;
50249;SDS011;36133;42.522;27.456;2023-04-15T14:27:29;7.10;;;2.90;;
50249;SDS011;36133;42.522;27.456;2023-04-15T14:29:57;5.40;;;2.50;;
50249;SDS011;36133;42.522;27.456;2023-04-15T14:32:26;6.68;;;3.30;;
50249;SDS011;36133;42.522;27.456;2023-04-15T14:34:57;8.88;;;2.90;;
50249;SDS011;36133;42.522;27.456;2023-04-15T14:37:23;6.30;;;2.88;;
50249;SDS011;36133;42.522;27.456;2023-04-15T14:39:48;9.77;;;3.30;;
50249;SDS011;36133;42.522;27.456;2023-04-15T14:42:14;7.53;;;2.67;;
50249;SDS011;36133;42.522;27.456;2023-04-15T14:44:40;8.38;;;3.10;;